createdAt,value
2023-04-02T00:12:15.794Z,97136.84
2023-04-02T00:42:19.099Z,97169.88
2023-04-02T01:12:35.524Z,97187.53
2023-04-02T01:42:43.859Z,97200.19
2023-04-02T02:12:47.149Z,97229.28
2023-04-02T02:42:52.313Z,97287.38
2023-04-02T03:13:01.541Z,97325.13
2023-04-02T03:43:12.358Z,97371.75
2023-04-02T04:13:18.205Z,97419.03
2023-04-02T04:43:28.665Z,97467.75
2023-04-02T05:13:34.788Z,97519.94
2023-04-02T05:43:39.217Z,97582.34
2023-04-02T06:13:42.162Z,97652.53
2023-04-02T06:43:47.040Z,97710.00
2023-04-02T07:13:50.559Z,97772.78
2023-04-02T07:43:53.780Z,97851.16
2023-04-02T08:13:56.706Z,97909.16
2023-04-02T08:44:09.330Z,97980.13
2023-04-02T09:14:16.041Z,98040.31
2023-04-02T09:44:23.888Z,98091.63
2023-04-02T10:14:29.556Z,98150.22
2023-04-02T10:44:46.958Z,98196.69
2023-04-02T11:14:50.682Z,98241.22
2023-04-02T11:44:54.002Z,98299.59
2023-04-02T12:14:57.663Z,98335.78
2023-04-02T12:45:01.206Z,98384.34
2023-04-02T13:15:06.125Z,98414.84
2023-04-02T13:45:19.102Z,98449.88
2023-04-02T14:15:31.715Z,98468.41
2023-04-02T14:45:44.736Z,98500.72
2023-04-02T15:15:52.375Z,98548.41
2023-04-02T15:46:07.942Z,98584.97
2023-04-02T16:16:13.002Z,98652.25
2023-04-02T16:46:31.837Z,98695.25
2023-04-02T17:16:42.847Z,98729.66
2023-04-02T17:46:50.462Z,98773.59
2023-04-02T18:16:58.082Z,98831.22
2023-04-02T18:47:06.523Z,98879.59
2023-04-02T19:17:14.610Z,98923.34
2023-04-02T19:47:18.616Z,98942.06
2023-04-02T20:17:21.744Z,98978.50
2023-04-02T20:47:24.873Z,99004.91
2023-04-02T21:17:27.902Z,99024.34
2023-04-02T21:47:30.890Z,99033.88
2023-04-02T22:17:34.040Z,99037.34
2023-04-02T22:47:37.064Z,99032.94
2023-04-02T23:17:40.098Z,99038.84
2023-04-02T23:47:43.201Z,99062.00
